createdAt,value
2023-04-16T00:00:29.498Z,20.75
2023-04-16T00:02:56.600Z,20.75
2023-04-16T00:05:23.617Z,20.69
2023-04-16T00:07:50.554Z,20.63
2023-04-16T00:10:17.520Z,20.63
2023-04-16T00:12:44.479Z,20.56
2023-04-16T00:15:11.410Z,20.50
2023-04-16T00:17:38.371Z,20.50
2023-04-16T00:20:05.421Z,20.44
2023-04-16T00:22:32.395Z,20.38
2023-04-16T00:24:59.402Z,20.38
2023-04-16T00:27:26.336Z,20.31
2023-04-16T00:29:53.323Z,20.31
2023-04-16T00:32:20.318Z,20.25
2023-04-16T00:34:47.308Z,20.19
2023-04-16T00:37:14.266Z,20.19
2023-04-16T00:39:41.203Z,20.13
2023-04-16T00:42:08.158Z,20.13
2023-04-16T00:44:35.113Z,20.06
2023-04-16T00:47:02.092Z,20.06
2023-04-16T00:49:29.079Z,20.00
2023-04-16T00:51:56.015Z,20.00
2023-04-16T00:54:22.934Z,19.94
2023-04-16T00:56:49.916Z,19.94
2023-04-16T00:59:16.841Z,19.88
2023-04-16T01:01:43.945Z,19.88
2023-04-16T01:04:11.020Z,19.81
2023-04-16T01:06:39.233Z,19.75
2023-04-16T01:09:06.262Z,19.75
2023-04-16T01:11:33.274Z,19.75
2023-04-16T01:14:00.227Z,19.69
2023-04-16T01:16:27.211Z,19.69
2023-04-16T01:18:54.187Z,19.63
2023-04-16T01:21:21.126Z,19.63
2023-04-16T01:23:48.077Z,19.56
2023-04-16T01:26:15.033Z,19.56
2023-04-16T01:28:41.954Z,19.50
2023-04-16T01:31:08.966Z,19.50
2023-04-16T01:33:35.986Z,19.44
2023-04-16T01:36:03.004Z,19.44
2023-04-16T01:38:29.988Z,19.38
2023-04-16T01:40:56.937Z,19.38
2023-04-16T01:43:23.929Z,19.38
2023-04-16T01:45:50.899Z,19.31
2023-04-16T01:48:17.850Z,19.25
2023-04-16T01:50:44.792Z,19.25
2023-04-16T01:53:11.692Z,19.25
2023-04-16T01:55:38.720Z,19.19
2023-04-16T01:58:05.654Z,19.19
2023-04-16T02:00:32.599Z,19.19
2023-04-16T02:02:59.675Z,19.13
2023-04-16T02:05:26.770Z,19.13
2023-04-16T02:07:53.747Z,19.06
2023-04-16T02:10:20.742Z,19.06
2023-04-16T02:12:47.746Z,19.06
2023-04-16T02:15:14.699Z,19.00
2023-04-16T02:17:41.693Z,19.00
2023-04-16T02:20:08.685Z,19.00
2023-04-16T02:22:35.660Z,18.94
2023-04-16T02:25:02.595Z,18.94
2023-04-16T02:27:29.570Z,18.88
2023-04-16T02:29:56.499Z,18.88
2023-04-16T02:32:23.471Z,18.88
2023-04-16T02:34:50.559Z,18.81
2023-04-16T02:37:17.505Z,18.81
2023-04-16T02:39:44.487Z,18.75
2023-04-16T02:42:11.432Z,18.75
2023-04-16T02:44:38.408Z,18.75
2023-04-16T02:47:05.344Z,18.75
2023-04-16T02:49:32.278Z,18.69
2023-04-16T02:51:59.295Z,18.69
2023-04-16T02:54:26.307Z,18.63
2023-04-16T02:56:53.247Z,18.63
2023-04-16T02:59:20.214Z,18.63
2023-04-16T03:01:47.165Z,18.63
2023-04-16T03:04:14.215Z,18.56
2023-04-16T03:06:41.186Z,18.56
2023-04-16T03:09:08.323Z,18.56
2023-04-16T03:11:35.368Z,18.50
2023-04-16T03:14:02.333Z,18.50
2023-04-16T03:16:29.268Z,18.50
2023-04-16T03:18:56.169Z,18.50
2023-04-16T03:21:23.108Z,18.44
2023-04-16T03:23:50.021Z,18.44
2023-04-16T03:26:16.942Z,18.44
2023-04-16T03:28:43.889Z,18.38
2023-04-16T03:31:10.820Z,18.38
2023-04-16T03:33:37.769Z,18.38
2023-04-16T03:36:04.677Z,18.38
2023-04-16T03:38:31.586Z,19.75
2023-04-16T03:40:58.567Z,20.19
2023-04-16T03:43:25.480Z,20.38
2023-04-16T03:45:52.406Z,20.50
2023-04-16T03:48:19.328Z,20.44
2023-04-16T03:50:46.247Z,20.44
2023-04-16T03:53:13.210Z,20.44
2023-04-16T03:55:40.107Z,20.38
2023-04-16T03:58:07.032Z,20.38
2023-04-16T04:00:33.966Z,20.38
2023-04-16T04:03:01.152Z,20.44
2023-04-16T04:05:28.203Z,24.25
2023-04-16T04:07:55.118Z,31.88
2023-04-16T04:10:22.095Z,34.25
2023-04-16T04:12:49.010Z,33.50
2023-04-16T04:15:15.918Z,32.94
2023-04-16T04:17:42.884Z,28.38
2023-04-16T04:20:09.838Z,25.94
2023-04-16T04:22:36.778Z,29.50
2023-04-16T04:25:03.713Z,34.00
2023-04-16T04:27:30.654Z,35.38
2023-04-16T04:29:57.620Z,35.31
2023-04-16T04:32:24.630Z,33.50
2023-04-16T04:34:51.614Z,29.56
2023-04-16T04:37:18.548Z,29.44
2023-04-16T04:39:45.486Z,33.75
2023-04-16T04:42:12.405Z,35.75
2023-04-16T04:44:39.312Z,36.19
2023-04-16T04:47:06.220Z,35.25
2023-04-16T04:49:33.137Z,34.13
2023-04-16T04:52:00.090Z,33.81
2023-04-16T04:54:27.109Z,35.00
2023-04-16T04:56:54.038Z,36.19
2023-04-16T04:59:20.978Z,36.56
2023-04-16T05:01:47.917Z,36.56
2023-04-16T05:04:14.935Z,36.81
2023-04-16T05:06:41.950Z,37.19
2023-04-16T05:09:09.162Z,37.50
2023-04-16T05:11:36.274Z,37.75
2023-04-16T05:14:03.194Z,38.06
2023-04-16T05:16:30.116Z,38.38
2023-04-16T05:18:57.074Z,38.50
2023-04-16T05:21:24.033Z,38.44
2023-04-16T05:23:50.949Z,38.44
2023-04-16T05:26:17.892Z,38.44
2023-04-16T05:28:44.803Z,38.31
2023-04-16T05:31:11.780Z,38.44
2023-04-16T05:33:38.725Z,38.56
2023-04-16T05:36:05.733Z,38.31
2023-04-16T05:38:32.671Z,38.31
2023-04-16T05:40:59.603Z,38.31
2023-04-16T05:43:26.520Z,38.31
2023-04-16T05:45:53.470Z,38.25
2023-04-16T05:48:20.378Z,38.06
2023-04-16T05:50:47.319Z,37.88
2023-04-16T05:53:14.280Z,37.69
2023-04-16T05:55:41.228Z,37.50
2023-04-16T05:58:08.145Z,37.38
2023-04-16T06:00:35.062Z,37.19
2023-04-16T06:03:02.104Z,37.00
2023-04-16T06:05:29.164Z,37.06
2023-04-16T06:07:56.124Z,37.25
2023-04-16T06:10:23.034Z,37.31
2023-04-16T06:12:49.966Z,37.31
2023-04-16T06:15:16.894Z,37.38
2023-04-16T06:17:49.826Z,37.50
2023-04-16T06:20:16.809Z,37.63
2023-04-16T06:22:43.720Z,37.75
2023-04-16T06:25:10.668Z,37.88
2023-04-16T06:27:37.573Z,37.94
2023-04-16T06:30:04.488Z,38.06
2023-04-16T06:32:31.450Z,38.13
2023-04-16T06:34:58.403Z,38.25
2023-04-16T06:37:25.352Z,38.31
2023-04-16T06:39:52.263Z,38.38
2023-04-16T06:42:19.174Z,38.44
2023-04-16T06:44:46.089Z,38.56
2023-04-16T06:47:12.991Z,38.63
2023-04-16T06:49:39.956Z,38.63
2023-04-16T06:52:06.887Z,38.50
2023-04-16T06:54:33.777Z,38.38
2023-04-16T06:57:00.708Z,38.19
2023-04-16T06:59:27.657Z,38.06
2023-04-16T07:01:54.623Z,37.88
2023-04-16T07:04:21.635Z,37.75
2023-04-16T07:06:48.597Z,37.56
2023-04-16T07:09:15.500Z,37.38
2023-04-16T07:11:42.441Z,37.31
2023-04-16T07:14:09.370Z,37.38
2023-04-16T07:16:36.368Z,37.50
2023-04-16T07:19:03.389Z,37.50
2023-04-16T07:21:30.325Z,37.56
2023-04-16T07:23:57.244Z,37.63
2023-04-16T07:26:24.187Z,37.75
2023-04-16T07:28:51.156Z,37.81
2023-04-16T07:31:18.110Z,37.88
2023-04-16T07:33:45.025Z,38.00
2023-04-16T07:36:12.023Z,38.06
2023-04-16T07:38:38.944Z,38.19
2023-04-16T07:41:05.860Z,38.25
2023-04-16T07:43:32.799Z,38.31
2023-04-16T07:45:59.870Z,38.38
2023-04-16T07:48:26.833Z,38.44
2023-04-16T07:50:53.749Z,38.44
2023-04-16T07:53:20.644Z,38.38
2023-04-16T07:55:47.573Z,38.25
2023-04-16T07:58:14.497Z,38.13
2023-04-16T08:00:41.433Z,37.94
2023-04-16T08:03:08.557Z,37.81
2023-04-16T08:05:35.550Z,37.69
2023-04-16T08:08:02.503Z,37.38
2023-04-16T08:10:29.424Z,36.63
2023-04-16T08:12:56.343Z,36.63
2023-04-16T08:15:23.279Z,36.75
2023-04-16T08:17:50.191Z,36.81
2023-04-16T08:20:19.289Z,36.81
2023-04-16T08:22:46.498Z,36.81
2023-04-16T08:25:13.538Z,36.88
2023-04-16T08:27:40.446Z,36.94
2023-04-16T08:30:07.384Z,36.94
2023-04-16T08:32:34.400Z,36.94
2023-04-16T08:35:01.347Z,36.81
2023-04-16T08:37:28.296Z,36.75
2023-04-16T08:39:55.208Z,36.75
2023-04-16T08:42:22.117Z,36.81
2023-04-16T08:44:49.405Z,36.75
2023-04-16T08:47:16.460Z,36.75
2023-04-16T08:49:43.372Z,36.75
2023-04-16T08:52:10.287Z,36.75
2023-04-16T08:54:37.212Z,36.94
2023-04-16T08:57:04.180Z,37.00
2023-04-16T08:59:31.087Z,37.00
2023-04-16T09:01:58.084Z,37.13
2023-04-16T09:04:25.170Z,37.25
2023-04-16T09:06:52.102Z,37.38
2023-04-16T09:09:19.022Z,37.50
2023-04-16T09:11:45.963Z,37.56
2023-04-16T09:14:12.905Z,37.69
2023-04-16T09:16:39.904Z,37.81
2023-04-16T09:19:06.918Z,37.94
2023-04-16T09:21:33.834Z,38.06
2023-04-16T09:24:00.812Z,38.13
2023-04-16T09:26:27.740Z,38.06
2023-04-16T09:28:54.643Z,37.94
2023-04-16T09:31:21.613Z,37.81
2023-04-16T09:33:48.562Z,37.69
2023-04-16T09:36:15.495Z,37.50
2023-04-16T09:38:42.401Z,37.38
2023-04-16T09:41:09.328Z,37.25
2023-04-16T09:43:36.245Z,37.13
2023-04-16T09:46:07.370Z,37.25
2023-04-16T09:48:35.277Z,37.31
2023-04-16T09:51:02.177Z,37.38
2023-04-16T09:53:29.099Z,37.44
2023-04-16T09:55:56.044Z,37.56
2023-04-16T09:58:22.972Z,37.69
2023-04-16T10:00:49.986Z,37.81
2023-04-16T10:03:16.944Z,37.88
2023-04-16T10:05:43.879Z,38.00
2023-04-16T10:08:10.784Z,37.88
2023-04-16T10:10:37.693Z,37.75
2023-04-16T10:13:04.719Z,37.75
2023-04-16T10:15:31.641Z,37.75
2023-04-16T10:17:58.572Z,37.69
2023-04-16T10:20:25.572Z,37.50
2023-04-16T10:22:52.496Z,37.38
2023-04-16T10:25:19.397Z,37.19
2023-04-16T10:27:46.325Z,37.06
2023-04-16T10:30:13.225Z,36.88
2023-04-16T10:32:40.246Z,36.69
2023-04-16T10:35:07.144Z,36.50
2023-04-16T10:37:34.097Z,35.75
2023-04-16T10:40:00.986Z,35.19
2023-04-16T10:42:27.903Z,35.94
2023-04-16T10:44:54.859Z,36.38
2023-04-16T10:47:21.808Z,36.56
2023-04-16T10:49:48.757Z,36.69
2023-04-16T10:52:15.701Z,36.88
2023-04-16T10:54:42.612Z,37.00
2023-04-16T10:57:09.517Z,37.19
2023-04-16T10:59:36.434Z,37.25
2023-04-16T11:02:03.448Z,37.25
2023-04-16T11:04:30.581Z,37.13
2023-04-16T11:06:57.589Z,37.06
2023-04-16T11:09:24.504Z,36.94
2023-04-16T11:11:51.411Z,36.81
2023-04-16T11:14:18.332Z,36.69
2023-04-16T11:16:45.271Z,36.56
2023-04-16T11:19:12.243Z,36.50
2023-04-16T11:21:39.155Z,36.63
2023-04-16T11:24:06.077Z,36.75
2023-04-16T11:26:32.987Z,36.81
2023-04-16T11:28:59.948Z,36.94
2023-04-16T11:31:26.942Z,37.06
2023-04-16T11:33:53.916Z,37.19
2023-04-16T11:36:20.828Z,37.31
2023-04-16T11:38:47.755Z,37.44
2023-04-16T11:41:14.697Z,37.56
2023-04-16T11:43:41.589Z,37.63
2023-04-16T11:46:20.485Z,37.63
2023-04-16T11:48:51.392Z,37.50
2023-04-16T11:51:18.373Z,37.38
2023-04-16T11:53:45.294Z,37.25
2023-04-16T11:56:12.231Z,37.06
2023-04-16T11:58:39.155Z,36.94
2023-04-16T12:01:10.145Z,36.81
2023-04-16T12:03:37.336Z,36.69
2023-04-16T12:06:04.462Z,36.75
2023-04-16T12:08:31.367Z,36.88
2023-04-16T12:10:58.293Z,36.94
2023-04-16T12:13:25.262Z,36.94
2023-04-16T12:15:52.184Z,37.00
2023-04-16T12:18:19.103Z,37.13
2023-04-16T12:20:46.019Z,37.31
2023-04-16T12:23:12.917Z,37.44
2023-04-16T12:25:39.870Z,37.50
2023-04-16T12:28:06.770Z,37.63
2023-04-16T12:30:33.802Z,37.63
2023-04-16T12:33:00.810Z,37.56
2023-04-16T12:35:27.758Z,37.44
2023-04-16T12:37:54.657Z,37.31
2023-04-16T12:40:21.628Z,37.19
2023-04-16T12:42:48.571Z,37.06
2023-04-16T12:45:15.482Z,36.94
2023-04-16T12:47:42.441Z,36.81
2023-04-16T12:50:09.402Z,36.75
2023-04-16T12:52:36.323Z,36.88
2023-04-16T12:55:03.249Z,36.94
2023-04-16T12:57:30.213Z,37.00
2023-04-16T12:59:57.165Z,37.06
2023-04-16T13:02:24.256Z,37.19
2023-04-16T13:04:51.360Z,37.31
2023-04-16T13:07:18.291Z,37.38
2023-04-16T13:09:45.307Z,37.50
2023-04-16T13:12:12.208Z,37.63
2023-04-16T13:14:39.129Z,37.69
2023-04-16T13:17:06.051Z,37.63
2023-04-16T13:19:32.973Z,37.50
2023-04-16T13:21:59.921Z,37.38
2023-04-16T13:24:26.836Z,37.25
2023-04-16T13:26:53.799Z,37.06
2023-04-16T13:29:20.714Z,36.94
2023-04-16T13:31:47.829Z,36.81
2023-04-16T13:34:14.941Z,36.69
2023-04-16T13:36:41.882Z,36.81
2023-04-16T13:39:09.004Z,36.94
2023-04-16T13:41:36.067Z,37.00
2023-04-16T13:44:02.995Z,37.06
2023-04-16T13:46:30.001Z,37.19
2023-04-16T13:48:56.951Z,37.31
2023-04-16T13:51:23.860Z,37.44
2023-04-16T13:53:50.807Z,37.56
2023-04-16T13:56:17.715Z,37.69
2023-04-16T13:58:44.669Z,37.69
2023-04-16T14:01:11.648Z,37.63
2023-04-16T14:03:38.772Z,37.56
2023-04-16T14:06:05.816Z,37.44
2023-04-16T14:08:32.709Z,37.25
2023-04-16T14:10:59.633Z,37.13
2023-04-16T14:13:26.551Z,37.00
2023-04-16T14:15:53.510Z,36.88
2023-04-16T14:18:20.481Z,36.75
2023-04-16T14:20:47.416Z,36.88
2023-04-16T14:23:14.331Z,36.94
2023-04-16T14:25:41.247Z,37.00
2023-04-16T14:28:08.200Z,37.06
2023-04-16T14:30:35.137Z,37.19
2023-04-16T14:33:02.220Z,37.31
2023-04-16T14:35:29.214Z,37.44
2023-04-16T14:37:56.126Z,37.56
2023-04-16T14:40:23.106Z,37.56
2023-04-16T14:42:50.029Z,37.56
2023-04-16T14:45:16.945Z,37.56
2023-04-16T14:47:43.974Z,37.50
2023-04-16T14:50:10.918Z,37.31
2023-04-16T14:52:37.847Z,37.19
2023-04-16T14:55:04.781Z,37.06
2023-04-16T14:57:31.687Z,36.94
2023-04-16T14:59:58.636Z,36.81
2023-04-16T15:02:25.696Z,36.69
2023-04-16T15:04:52.748Z,36.56
2023-04-16T15:07:19.670Z,36.63
2023-04-16T15:09:46.595Z,36.69
2023-04-16T15:12:13.504Z,36.75
2023-04-16T15:14:40.424Z,36.81
2023-04-16T15:17:07.368Z,36.94
2023-04-16T15:19:34.282Z,37.00
2023-04-16T15:22:01.201Z,37.13
2023-04-16T15:24:28.127Z,37.25
2023-04-16T15:26:55.063Z,37.13
2023-04-16T15:29:21.989Z,36.94
2023-04-16T15:31:48.934Z,36.88
2023-04-16T15:34:15.852Z,36.69
2023-04-16T15:36:42.779Z,36.56
2023-04-16T15:39:10.114Z,36.44
2023-04-16T15:41:37.248Z,36.25
2023-04-16T15:44:04.214Z,36.13
2023-04-16T15:46:31.171Z,35.94
2023-04-16T15:48:58.119Z,35.81
2023-04-16T15:51:25.048Z,35.69
2023-04-16T15:53:51.956Z,35.63
2023-04-16T15:56:18.851Z,35.63
2023-04-16T15:58:45.804Z,35.63
2023-04-16T16:01:12.722Z,35.69
2023-04-16T16:03:39.818Z,35.75
2023-04-16T16:06:06.873Z,35.88
2023-04-16T16:08:33.787Z,36.00
2023-04-16T16:11:00.703Z,36.00
2023-04-16T16:13:27.596Z,36.00
2023-04-16T16:15:54.580Z,35.94
2023-04-16T16:18:21.553Z,35.81
2023-04-16T16:20:48.465Z,35.69
2023-04-16T16:23:15.391Z,35.69
2023-04-16T16:25:42.319Z,35.69
2023-04-16T16:28:09.311Z,35.69
2023-04-16T16:30:36.218Z,35.69
2023-04-16T16:33:03.186Z,35.75
2023-04-16T16:35:30.141Z,36.00
2023-04-16T16:37:57.035Z,36.13
2023-04-16T16:40:23.986Z,36.19
2023-04-16T16:42:50.953Z,36.31
2023-04-16T16:45:17.902Z,36.44
2023-04-16T16:47:44.861Z,36.63
2023-04-16T16:50:11.857Z,36.81
2023-04-16T16:52:38.794Z,37.00
2023-04-16T16:55:05.703Z,37.13
2023-04-16T16:57:32.646Z,37.31
2023-04-16T16:59:59.593Z,37.31
2023-04-16T17:02:26.690Z,37.31
2023-04-16T17:04:53.657Z,37.25
2023-04-16T17:07:20.599Z,37.13
2023-04-16T17:09:47.495Z,37.00
2023-04-16T17:12:14.505Z,36.88
2023-04-16T17:14:41.435Z,36.75
2023-04-16T17:17:08.321Z,36.69
2023-04-16T17:19:35.250Z,36.50
2023-04-16T17:22:02.153Z,36.50
2023-04-16T17:24:29.096Z,36.63
2023-04-16T17:26:56.080Z,36.75
2023-04-16T17:29:22.995Z,36.81
2023-04-16T17:31:49.992Z,36.88
2023-04-16T17:34:16.957Z,37.00
2023-04-16T17:36:43.979Z,37.13
2023-04-16T17:39:10.886Z,37.25
2023-04-16T17:41:37.797Z,37.31
2023-04-16T17:44:04.711Z,37.19
2023-04-16T17:46:31.728Z,37.19
2023-04-16T17:48:58.747Z,37.13
2023-04-16T17:51:25.651Z,37.00
2023-04-16T17:53:52.613Z,36.88
2023-04-16T17:56:19.525Z,36.69
2023-04-16T17:58:46.502Z,36.56
2023-04-16T18:01:13.503Z,36.44
2023-04-16T18:03:40.601Z,36.25
2023-04-16T18:06:07.638Z,36.13
2023-04-16T18:08:34.551Z,36.00
2023-04-16T18:11:01.486Z,35.88
2023-04-16T18:13:28.432Z,35.75
2023-04-16T18:15:55.417Z,35.75
2023-04-16T18:18:22.557Z,35.88
2023-04-16T18:20:49.485Z,36.06
2023-04-16T18:23:16.423Z,36.19
2023-04-16T18:25:43.336Z,36.38
2023-04-16T18:28:13.691Z,36.50
2023-04-16T18:30:41.141Z,36.63
2023-04-16T18:33:34.242Z,36.75
2023-04-16T18:35:54.963Z,36.88
2023-04-16T18:38:21.881Z,37.00
2023-04-16T18:40:48.832Z,37.06
2023-04-16T18:43:15.755Z,37.06
2023-04-16T18:45:42.664Z,37.00
2023-04-16T18:48:09.568Z,36.88
2023-04-16T18:50:36.488Z,36.75
2023-04-16T18:53:03.405Z,36.63
2023-04-16T18:55:30.359Z,36.56
2023-04-16T18:57:57.270Z,36.38
2023-04-16T19:00:24.174Z,36.31
2023-04-16T19:02:51.238Z,36.13
2023-04-16T19:05:18.232Z,35.94
2023-04-16T19:07:45.215Z,35.63
2023-04-16T19:10:12.184Z,35.31
2023-04-16T19:12:39.110Z,35.00
2023-04-16T19:15:06.048Z,34.75
2023-04-16T19:17:32.991Z,34.44
2023-04-16T19:19:59.922Z,34.19
2023-04-16T19:22:26.826Z,33.94
2023-04-16T19:24:53.773Z,33.69
2023-04-16T19:27:20.704Z,33.44
2023-04-16T19:29:47.590Z,33.13
2023-04-16T19:32:14.571Z,32.88
2023-04-16T19:34:41.529Z,32.63
2023-04-16T19:37:08.443Z,32.38
2023-04-16T19:39:35.413Z,32.19
2023-04-16T19:42:02.391Z,31.94
2023-04-16T19:44:29.365Z,31.69
2023-04-16T19:46:56.281Z,31.50
2023-04-16T19:49:23.210Z,31.25
2023-04-16T19:51:50.133Z,31.06
2023-04-16T19:54:17.039Z,30.88
2023-04-16T19:56:43.989Z,30.63
2023-04-16T19:59:11.129Z,30.44
2023-04-16T20:01:38.375Z,30.25
2023-04-16T20:04:05.508Z,30.06
2023-04-16T20:06:32.404Z,29.88
2023-04-16T20:08:59.299Z,29.69
2023-04-16T20:11:26.212Z,29.50
2023-04-16T20:13:53.121Z,29.38
2023-04-16T20:16:20.068Z,29.19
2023-04-16T20:18:47.038Z,29.06
2023-04-16T20:21:13.953Z,28.88
2023-04-16T20:23:40.867Z,28.75
2023-04-16T20:26:07.759Z,28.56
2023-04-16T20:28:34.694Z,28.44
2023-04-16T20:31:01.648Z,28.31
2023-04-16T20:33:28.574Z,28.19
2023-04-16T20:35:55.518Z,28.00
2023-04-16T20:38:22.428Z,27.88
2023-04-16T20:40:49.350Z,27.75
2023-04-16T20:43:16.321Z,27.63
2023-04-16T20:45:43.253Z,27.50
2023-04-16T20:48:10.315Z,27.31
2023-04-16T20:50:37.251Z,27.19
2023-04-16T20:53:04.174Z,27.06
2023-04-16T20:55:31.121Z,26.88
2023-04-16T20:57:58.032Z,26.75
2023-04-16T21:00:24.948Z,26.56
2023-04-16T21:02:52.007Z,26.44
2023-04-16T21:05:18.953Z,26.25
2023-04-16T21:07:45.902Z,26.25
2023-04-16T21:10:12.809Z,26.25
2023-04-16T21:12:39.745Z,26.19
2023-04-16T21:15:06.692Z,26.13
2023-04-16T21:17:33.678Z,26.06
2023-04-16T21:20:00.678Z,26.06
2023-04-16T21:22:27.585Z,26.00
2023-04-16T21:24:54.484Z,25.88
2023-04-16T21:27:21.409Z,25.81
2023-04-16T21:29:48.328Z,25.75
2023-04-16T21:32:15.246Z,25.63
2023-04-16T21:34:42.147Z,25.50
2023-04-16T21:37:09.057Z,25.38
2023-04-16T21:39:36.022Z,25.31
2023-04-16T21:42:02.941Z,25.19
2023-04-16T21:44:29.927Z,25.06
2023-04-16T21:46:56.880Z,25.00
2023-04-16T21:49:23.804Z,24.88
2023-04-16T21:51:50.719Z,24.75
2023-04-16T21:54:17.626Z,24.63
2023-04-16T21:56:44.563Z,24.50
2023-04-16T21:59:11.643Z,24.44
2023-04-16T22:01:38.863Z,24.31
2023-04-16T22:04:05.945Z,24.19
2023-04-16T22:06:32.912Z,24.13
2023-04-16T22:08:59.820Z,24.00
2023-04-16T22:11:26.716Z,23.88
2023-04-16T22:13:53.620Z,23.81
2023-04-16T22:16:20.564Z,23.69
2023-04-16T22:18:47.560Z,23.63
2023-04-16T22:21:14.542Z,23.50
2023-04-16T22:23:41.465Z,23.44
2023-04-16T22:26:08.400Z,23.31
2023-04-16T22:28:35.339Z,23.25
2023-04-16T22:31:02.279Z,23.19
2023-04-16T22:33:29.177Z,23.06
2023-04-16T22:35:56.104Z,23.00
2023-04-16T22:38:23.068Z,22.88
2023-04-16T22:40:49.978Z,22.81
2023-04-16T22:43:16.903Z,22.75
2023-04-16T22:45:43.886Z,22.69
2023-04-16T22:48:10.931Z,22.63
2023-04-16T22:50:37.921Z,22.50
2023-04-16T22:53:04.840Z,22.44
2023-04-16T22:55:31.741Z,22.38
2023-04-16T22:57:58.757Z,22.31
2023-04-16T23:00:25.679Z,22.25
2023-04-16T23:02:52.720Z,22.19
2023-04-16T23:05:19.746Z,22.13
2023-04-16T23:07:46.680Z,22.06
2023-04-16T23:10:13.586Z,22.00
2023-04-16T23:12:40.503Z,21.94
2023-04-16T23:15:07.420Z,21.88
2023-04-16T23:17:34.371Z,21.81
2023-04-16T23:20:01.293Z,21.75
2023-04-16T23:22:28.202Z,21.69
2023-04-16T23:24:55.141Z,21.63
2023-04-16T23:27:22.059Z,21.56
2023-04-16T23:29:48.981Z,21.50
2023-04-16T23:32:15.951Z,21.44
2023-04-16T23:34:42.878Z,21.44
2023-04-16T23:37:09.798Z,21.38
2023-04-16T23:39:36.727Z,21.31
2023-04-16T23:42:03.665Z,21.25
2023-04-16T23:44:30.613Z,21.19
2023-04-16T23:46:57.603Z,21.13
2023-04-16T23:49:24.561Z,21.13
2023-04-16T23:51:51.506Z,21.06
2023-04-16T23:54:18.437Z,21.00
2023-04-16T23:56:45.343Z,20.94
2023-04-16T23:59:12.764Z,20.94
